sensor_id;sensor_type;location;lat;lon;timestamp;P1;durP1;ratioP1;P2;durP2;ratioP2
21862;SDS011;11096;51.338;12.524;2023-12-20T00:00:52;18.05;;;9.20;;
21862;SDS011;11096;51.338;12.524;2023-12-20T00:03:17;16.17;;;8.90;;
21862;SDS011;11096;51.338;12.524;2023-12-20T00:05:42;18.23;;;9.23;;
21862;SDS011;11096;51.338;12.524;2023-12-20T00:08:07;14.60;;;7.97;;
21862;SDS011;11096;51.338;12.524;2023-12-20T00:10:32;12.38;;;6.93;;
21862;SDS011;11096;51.338;12.524;2023-12-20T00:12:58;14.85;;;7.60;;
21862;SDS011;11096;51.338;12.524;2023-12-20T00:15:23;13.73;;;7.32;;
21862;SDS011;11096;51.338;12.524;2023-12-20T00:17:48;11.73;;;6.43;;
21862;SDS011;11096;51.338;12.524;2023-12-20T00:20:13;11.18;;;6.10;;
21862;SDS011;11096;51.338;12.524;2023-12-20T00:22:39;11.32;;;6.35;;
21862;SDS011;11096;51.338;12.524;2023-12-20T00:25:04;11.40;;;6.03;;
21862;SDS011;11096;51.338;12.524;2023-12-20T00:27:29;9.63;;;6.30;;
21862;SDS011;11096;51.338;12.524;2023-12-20T00:29:55;10.32;;;5.85;;
21862;SDS011;11096;51.338;12.524;2023-12-20T00:32:20;9.98;;;5.95;;
21862;SDS011;11096;51.338;12.524;2023-12-20T00:34:45;10.93;;;5.45;;
21862;SDS011;11096;51.338;12.524;2023-12-20T00:37:10;8.75;;;5.07;;
21862;SDS011;11096;51.338;12.524;2023-12-20T00:39:36;9.40;;;5.50;;
21862;SDS011;11096;51.338;12.524;2023-12-20T00:42:01;9.35;;;5.32;;
21862;SDS011;11096;51.338;12.524;2023-12-20T00:44:26;7.47;;;4.78;;
21862;SDS011;11096;51.338;12.524;2023-12-20T00:46:51;8.43;;;4.60;;
21862;SDS011;11096;51.338;12.524;2023-12-20T00:49:17;9.65;;;4.65;;
21862;SDS011;11096;51.338;12.524;2023-12-20T00:51:42;6.63;;;4.78;;
21862;SDS011;11096;51.338;12.524;2023-12-20T00:54:07;6.90;;;4.40;;
21862;SDS011;11096;51.338;12.524;2023-12-20T00:56:32;8.27;;;4.60;;
21862;SDS011;11096;51.338;12.524;2023-12-20T00:58:58;8.90;;;4.57;;
21862;SDS011;11096;51.338;12.524;2023-12-20T01:01:23;7.93;;;4.57;;
21862;SDS011;11096;51.338;12.524;2023-12-20T01:03:48;6.03;;;3.83;;
21862;SDS011;11096;51.338;12.524;2023-12-20T01:06:16;8.30;;;4.53;;
21862;SDS011;11096;51.338;12.524;2023-12-20T01:08:41;5.80;;;4.22;;
21862;SDS011;11096;51.338;12.524;2023-12-20T01:11:06;9.27;;;4.53;;
21862;SDS011;11096;51.338;12.524;2023-12-20T01:13:32;6.63;;;4.35;;
21862;SDS011;11096;51.338;12.524;2023-12-20T01:15:57;7.65;;;4.18;;
21862;SDS011;11096;51.338;12.524;2023-12-20T01:18:22;7.70;;;4.03;;
21862;SDS011;11096;51.338;12.524;2023-12-20T01:20:47;6.97;;;4.00;;
21862;SDS011;11096;51.338;12.524;2023-12-20T01:23:13;7.90;;;4.32;;
21862;SDS011;11096;51.338;12.524;2023-12-20T01:25:39;8.10;;;3.95;;
21862;SDS011;11096;51.338;12.524;2023-12-20T01:28:04;6.45;;;4.00;;
21862;SDS011;11096;51.338;12.524;2023-12-20T01:30:29;6.85;;;4.32;;
21862;SDS011;11096;51.338;12.524;2023-12-20T01:32:54;6.30;;;4.15;;
21862;SDS011;11096;51.338;12.524;2023-12-20T01:35:20;6.88;;;4.18;;
21862;SDS011;11096;51.338;12.524;2023-12-20T01:37:45;7.53;;;4.53;;
21862;SDS011;11096;51.338;12.524;2023-12-20T01:40:10;6.97;;;4.25;;
21862;SDS011;11096;51.338;12.524;2023-12-20T01:42:36;8.90;;;3.78;;
21862;SDS011;11096;51.338;12.524;2023-12-20T01:45:01;6.55;;;4.00;;
21862;SDS011;11096;51.338;12.524;2023-12-20T01:47:27;7.70;;;4.00;;
21862;SDS011;11096;51.338;12.524;2023-12-20T01:49:52;6.07;;;4.18;;
21862;SDS011;11096;51.338;12.524;2023-12-20T01:52:18;7.28;;;4.25;;
21862;SDS011;11096;51.338;12.524;2023-12-20T01:54:44;7.22;;;4.30;;
21862;SDS011;11096;51.338;12.524;2023-12-20T01:57:09;7.30;;;4.03;;
21862;SDS011;11096;51.338;12.524;2023-12-20T01:59:35;7.43;;;3.67;;
21862;SDS011;11096;51.338;12.524;2023-12-20T02:02:00;6.35;;;3.60;;
21862;SDS011;11096;51.338;12.524;2023-12-20T02:04:25;6.70;;;3.92;;
21862;SDS011;11096;51.338;12.524;2023-12-20T02:06:52;5.93;;;3.55;;
21862;SDS011;11096;51.338;12.524;2023-12-20T02:09:17;7.00;;;3.88;;
21862;SDS011;11096;51.338;12.524;2023-12-20T02:11:43;5.93;;;3.58;;
21862;SDS011;11096;51.338;12.524;2023-12-20T02:14:08;7.22;;;4.20;;
21862;SDS011;11096;51.338;12.524;2023-12-20T02:16:33;6.43;;;3.78;;
21862;SDS011;11096;51.338;12.524;2023-12-20T02:18:59;10.43;;;3.60;;
21862;SDS011;11096;51.338;12.524;2023-12-20T02:21:25;6.32;;;3.85;;
21862;SDS011;11096;51.338;12.524;2023-12-20T02:23:50;6.65;;;4.03;;
21862;SDS011;11096;51.338;12.524;2023-12-20T02:26:15;6.43;;;3.40;;
21862;SDS011;11096;51.338;12.524;2023-12-20T02:28:41;6.50;;;4.13;;
21862;SDS011;11096;51.338;12.524;2023-12-20T02:31:06;6.05;;;3.28;;
21862;SDS011;11096;51.338;12.524;2023-12-20T02:33:31;5.40;;;3.10;;
21862;SDS011;11096;51.338;12.524;2023-12-20T02:35:57;7.15;;;3.50;;
21862;SDS011;11096;51.338;12.524;2023-12-20T02:38:22;5.78;;;3.63;;
21862;SDS011;11096;51.338;12.524;2023-12-20T02:40:47;6.03;;;3.55;;
21862;SDS011;11096;51.338;12.524;2023-12-20T02:43:12;6.25;;;3.60;;
21862;SDS011;11096;51.338;12.524;2023-12-20T02:45:38;4.38;;;3.22;;
21862;SDS011;11096;51.338;12.524;2023-12-20T02:48:03;5.25;;;3.50;;
21862;SDS011;11096;51.338;12.524;2023-12-20T02:50:28;5.47;;;3.58;;
21862;SDS011;11096;51.338;12.524;2023-12-20T02:52:54;7.68;;;3.97;;
21862;SDS011;11096;51.338;12.524;2023-12-20T02:55:19;7.25;;;3.78;;
21862;SDS011;11096;51.338;12.524;2023-12-20T02:57:44;9.73;;;3.65;;
21862;SDS011;11096;51.338;12.524;2023-12-20T03:00:09;6.22;;;3.75;;
21862;SDS011;11096;51.338;12.524;2023-12-20T03:02:35;7.80;;;3.47;;
21862;SDS011;11096;51.338;12.524;2023-12-20T03:05:01;7.15;;;3.88;;
21862;SDS011;11096;51.338;12.524;2023-12-20T03:07:26;7.13;;;3.97;;
21862;SDS011;11096;51.338;12.524;2023-12-20T03:09:52;7.82;;;3.55;;
21862;SDS011;11096;51.338;12.524;2023-12-20T03:12:17;5.30;;;3.47;;
21862;SDS011;11096;51.338;12.524;2023-12-20T03:14:43;6.82;;;3.53;;
21862;SDS011;11096;51.338;12.524;2023-12-20T03:17:08;7.53;;;4.35;;
21862;SDS011;11096;51.338;12.524;2023-12-20T03:19:33;8.48;;;4.13;;
21862;SDS011;11096;51.338;12.524;2023-12-20T03:21:58;8.50;;;4.03;;
21862;SDS011;11096;51.338;12.524;2023-12-20T03:24:26;7.25;;;4.53;;
21862;SDS011;11096;51.338;12.524;2023-12-20T03:26:51;6.05;;;3.70;;
21862;SDS011;11096;51.338;12.524;2023-12-20T03:29:16;5.97;;;3.95;;
21862;SDS011;11096;51.338;12.524;2023-12-20T03:31:41;5.25;;;3.30;;
21862;SDS011;11096;51.338;12.524;2023-12-20T03:34:06;7.57;;;3.65;;
21862;SDS011;11096;51.338;12.524;2023-12-20T03:36:32;7.53;;;4.30;;
21862;SDS011;11096;51.338;12.524;2023-12-20T03:38:57;7.15;;;4.03;;
21862;SDS011;11096;51.338;12.524;2023-12-20T03:41:22;5.88;;;3.60;;
21862;SDS011;11096;51.338;12.524;2023-12-20T03:43:47;6.38;;;3.70;;
21862;SDS011;11096;51.338;12.524;2023-12-20T03:46:13;9.23;;;3.97;;
21862;SDS011;11096;51.338;12.524;2023-12-20T03:48:38;7.93;;;3.83;;
21862;SDS011;11096;51.338;12.524;2023-12-20T03:51:03;6.68;;;3.70;;
21862;SDS011;11096;51.338;12.524;2023-12-20T03:53:28;7.53;;;3.55;;
21862;SDS011;11096;51.338;12.524;2023-12-20T03:55:53;7.70;;;4.38;;
21862;SDS011;11096;51.338;12.524;2023-12-20T03:58:19;6.05;;;3.67;;
21862;SDS011;11096;51.338;12.524;2023-12-20T04:00:44;6.68;;;3.85;;
21862;SDS011;11096;51.338;12.524;2023-12-20T04:03:09;8.57;;;4.25;;
21862;SDS011;11096;51.338;12.524;2023-12-20T04:05:37;9.07;;;4.88;;
21862;SDS011;11096;51.338;12.524;2023-12-20T04:08:03;8.82;;;4.43;;
21862;SDS011;11096;51.338;12.524;2023-12-20T04:10:29;8.38;;;4.97;;
21862;SDS011;11096;51.338;12.524;2023-12-20T04:12:54;7.88;;;4.80;;
21862;SDS011;11096;51.338;12.524;2023-12-20T04:15:20;9.07;;;5.40;;
21862;SDS011;11096;51.338;12.524;2023-12-20T04:17:45;10.27;;;5.90;;
21862;SDS011;11096;51.338;12.524;2023-12-20T04:20:10;13.60;;;6.15;;
21862;SDS011;11096;51.338;12.524;2023-12-20T04:22:36;11.60;;;5.60;;
21862;SDS011;11096;51.338;12.524;2023-12-20T04:25:01;11.57;;;6.35;;
21862;SDS011;11096;51.338;12.524;2023-12-20T04:27:27;10.30;;;6.35;;
21862;SDS011;11096;51.338;12.524;2023-12-20T04:29:52;12.23;;;6.65;;
21862;SDS011;11096;51.338;12.524;2023-12-20T04:32:17;13.65;;;7.10;;
21862;SDS011;11096;51.338;12.524;2023-12-20T04:34:42;14.18;;;7.30;;
21862;SDS011;11096;51.338;12.524;2023-12-20T04:37:08;14.65;;;7.28;;
21862;SDS011;11096;51.338;12.524;2023-12-20T04:39:33;15.75;;;7.85;;
21862;SDS011;11096;51.338;12.524;2023-12-20T04:41:58;13.98;;;7.53;;
21862;SDS011;11096;51.338;12.524;2023-12-20T04:44:23;19.45;;;7.70;;
21862;SDS011;11096;51.338;12.524;2023-12-20T04:46:49;12.98;;;7.00;;
21862;SDS011;11096;51.338;12.524;2023-12-20T04:49:14;12.60;;;7.18;;
21862;SDS011;11096;51.338;12.524;2023-12-20T04:51:39;16.98;;;7.57;;
21862;SDS011;11096;51.338;12.524;2023-12-20T04:54:04;12.18;;;7.53;;
21862;SDS011;11096;51.338;12.524;2023-12-20T04:56:30;13.70;;;7.28;;
21862;SDS011;11096;51.338;12.524;2023-12-20T04:58:55;11.80;;;6.93;;
21862;SDS011;11096;51.338;12.524;2023-12-20T05:01:20;13.23;;;6.90;;
21862;SDS011;11096;51.338;12.524;2023-12-20T05:03:46;17.83;;;7.72;;
21862;SDS011;11096;51.338;12.524;2023-12-20T05:06:11;15.27;;;7.25;;
21862;SDS011;11096;51.338;12.524;2023-12-20T05:08:37;14.90;;;7.70;;
21862;SDS011;11096;51.338;12.524;2023-12-20T05:11:02;16.38;;;7.80;;
21862;SDS011;11096;51.338;12.524;2023-12-20T05:13:27;15.18;;;7.57;;
21862;SDS011;11096;51.338;12.524;2023-12-20T05:15:52;12.30;;;7.47;;
21862;SDS011;11096;51.338;12.524;2023-12-20T05:18:18;17.00;;;8.73;;
21862;SDS011;11096;51.338;12.524;2023-12-20T05:20:43;17.30;;;8.75;;
21862;SDS011;11096;51.338;12.524;2023-12-20T05:23:08;17.38;;;8.90;;
21862;SDS011;11096;51.338;12.524;2023-12-20T05:25:33;21.33;;;9.35;;
21862;SDS011;11096;51.338;12.524;2023-12-20T05:27:59;19.15;;;9.65;;
21862;SDS011;11096;51.338;12.524;2023-12-20T05:30:24;18.88;;;9.57;;
21862;SDS011;11096;51.338;12.524;2023-12-20T05:32:49;21.52;;;10.20;;
21862;SDS011;11096;51.338;12.524;2023-12-20T05:35:14;20.38;;;10.75;;
21862;SDS011;11096;51.338;12.524;2023-12-20T05:37:40;24.10;;;12.15;;
21862;SDS011;11096;51.338;12.524;2023-12-20T05:40:05;24.45;;;11.88;;
21862;SDS011;11096;51.338;12.524;2023-12-20T05:42:31;25.08;;;13.02;;
21862;SDS011;11096;51.338;12.524;2023-12-20T05:44:56;25.48;;;12.70;;
21862;SDS011;11096;51.338;12.524;2023-12-20T05:47:21;24.85;;;12.50;;
21862;SDS011;11096;51.338;12.524;2023-12-20T05:49:47;23.13;;;12.27;;
21862;SDS011;11096;51.338;12.524;2023-12-20T05:52:12;25.55;;;12.95;;
21862;SDS011;11096;51.338;12.524;2023-12-20T05:54:37;25.42;;;12.57;;
21862;SDS011;11096;51.338;12.524;2023-12-20T05:57:02;24.33;;;12.07;;
21862;SDS011;11096;51.338;12.524;2023-12-20T05:59:28;23.33;;;12.50;;
21862;SDS011;11096;51.338;12.524;2023-12-20T06:01:53;20.65;;;11.90;;
21862;SDS011;11096;51.338;12.524;2023-12-20T06:04:18;23.13;;;11.45;;
21862;SDS011;11096;51.338;12.524;2023-12-20T06:06:44;25.55;;;11.93;;
21862;SDS011;11096;51.338;12.524;2023-12-20T06:09:09;22.73;;;11.80;;
21862;SDS011;11096;51.338;12.524;2023-12-20T06:11:34;24.35;;;11.88;;
21862;SDS011;11096;51.338;12.524;2023-12-20T06:14:00;24.17;;;12.13;;
21862;SDS011;11096;51.338;12.524;2023-12-20T06:16:25;25.67;;;11.77;;
21862;SDS011;11096;51.338;12.524;2023-12-20T06:18:50;28.42;;;13.15;;
21862;SDS011;11096;51.338;12.524;2023-12-20T06:21:15;24.63;;;11.80;;
21862;SDS011;11096;51.338;12.524;2023-12-20T06:23:41;21.85;;;11.50;;
21862;SDS011;11096;51.338;12.524;2023-12-20T06:26:06;26.52;;;11.57;;
21862;SDS011;11096;51.338;12.524;2023-12-20T06:28:31;20.75;;;10.75;;
21862;SDS011;11096;51.338;12.524;2023-12-20T06:30:57;17.13;;;9.02;;
21862;SDS011;11096;51.338;12.524;2023-12-20T06:33:22;21.42;;;9.80;;
21862;SDS011;11096;51.338;12.524;2023-12-20T06:35:48;17.17;;;8.63;;
21862;SDS011;11096;51.338;12.524;2023-12-20T06:38:13;14.82;;;7.95;;
21862;SDS011;11096;51.338;12.524;2023-12-20T06:40:38;16.42;;;8.07;;
21862;SDS011;11096;51.338;12.524;2023-12-20T06:43:03;14.57;;;7.88;;
21862;SDS011;11096;51.338;12.524;2023-12-20T06:45:29;17.00;;;8.63;;
21862;SDS011;11096;51.338;12.524;2023-12-20T06:47:54;20.70;;;9.15;;
21862;SDS011;11096;51.338;12.524;2023-12-20T06:50:20;16.98;;;8.68;;
21862;SDS011;11096;51.338;12.524;2023-12-20T06:52:45;13.75;;;6.90;;
21862;SDS011;11096;51.338;12.524;2023-12-20T06:55:10;12.80;;;7.28;;
21862;SDS011;11096;51.338;12.524;2023-12-20T06:57:35;15.95;;;7.68;;
21862;SDS011;11096;51.338;12.524;2023-12-20T07:00:01;17.05;;;8.52;;
21862;SDS011;11096;51.338;12.524;2023-12-20T07:02:27;19.48;;;7.50;;
21862;SDS011;11096;51.338;12.524;2023-12-20T07:04:55;15.52;;;7.82;;
21862;SDS011;11096;51.338;12.524;2023-12-20T07:07:20;15.10;;;7.57;;
21862;SDS011;11096;51.338;12.524;2023-12-20T07:09:46;14.48;;;7.22;;
21862;SDS011;11096;51.338;12.524;2023-12-20T07:12:11;17.42;;;6.85;;
21862;SDS011;11096;51.338;12.524;2023-12-20T07:14:36;13.55;;;6.75;;
21862;SDS011;11096;51.338;12.524;2023-12-20T07:17:02;15.63;;;6.65;;
21862;SDS011;11096;51.338;12.524;2023-12-20T07:19:27;14.85;;;7.05;;
21862;SDS011;11096;51.338;12.524;2023-12-20T07:21:53;14.05;;;7.18;;
21862;SDS011;11096;51.338;12.524;2023-12-20T07:24:18;16.42;;;7.32;;
21862;SDS011;11096;51.338;12.524;2023-12-20T07:26:43;13.13;;;6.30;;
21862;SDS011;11096;51.338;12.524;2023-12-20T07:29:08;13.63;;;6.35;;
21862;SDS011;11096;51.338;12.524;2023-12-20T07:31:34;12.40;;;5.70;;
21862;SDS011;11096;51.338;12.524;2023-12-20T07:34:00;12.68;;;5.75;;
21862;SDS011;11096;51.338;12.524;2023-12-20T07:36:25;11.90;;;4.47;;
21862;SDS011;11096;51.338;12.524;2023-12-20T07:38:50;9.48;;;4.68;;
21862;SDS011;11096;51.338;12.524;2023-12-20T07:41:15;13.25;;;4.50;;
21862;SDS011;11096;51.338;12.524;2023-12-20T07:43:41;11.95;;;4.90;;
21862;SDS011;11096;51.338;12.524;2023-12-20T07:46:06;9.18;;;4.53;;
21862;SDS011;11096;51.338;12.524;2023-12-20T07:48:32;11.48;;;4.07;;
21862;SDS011;11096;51.338;12.524;2023-12-20T07:50:57;8.63;;;3.83;;
21862;SDS011;11096;51.338;12.524;2023-12-20T07:53:23;9.68;;;3.83;;
21862;SDS011;11096;51.338;12.524;2023-12-20T07:55:48;7.65;;;3.42;;
21862;SDS011;11096;51.338;12.524;2023-12-20T07:58:13;8.23;;;3.38;;
21862;SDS011;11096;51.338;12.524;2023-12-20T08:00:38;8.75;;;3.55;;
21862;SDS011;11096;51.338;12.524;2023-12-20T08:03:04;9.90;;;3.72;;
21862;SDS011;11096;51.338;12.524;2023-12-20T08:05:29;5.40;;;2.60;;
21862;SDS011;11096;51.338;12.524;2023-12-20T08:07:54;6.47;;;3.03;;
21862;SDS011;11096;51.338;12.524;2023-12-20T08:10:20;7.88;;;2.67;;
21862;SDS011;11096;51.338;12.524;2023-12-20T08:12:45;7.32;;;2.88;;
21862;SDS011;11096;51.338;12.524;2023-12-20T08:15:10;3.55;;;2.30;;
21862;SDS011;11096;51.338;12.524;2023-12-20T08:17:35;7.85;;;2.40;;
21862;SDS011;11096;51.338;12.524;2023-12-20T08:20:01;5.15;;;2.78;;
21862;SDS011;11096;51.338;12.524;2023-12-20T08:22:26;7.57;;;2.55;;
21862;SDS011;11096;51.338;12.524;2023-12-20T08:24:51;11.02;;;2.78;;
21862;SDS011;11096;51.338;12.524;2023-12-20T08:27:16;5.57;;;2.50;;
21862;SDS011;11096;51.338;12.524;2023-12-20T08:29:43;5.15;;;2.25;;
21862;SDS011;11096;51.338;12.524;2023-12-20T08:32:08;7.13;;;1.92;;
21862;SDS011;11096;51.338;12.524;2023-12-20T08:34:33;7.93;;;2.03;;
21862;SDS011;11096;51.338;12.524;2023-12-20T08:36:59;12.55;;;2.63;;
21862;SDS011;11096;51.338;12.524;2023-12-20T08:39:24;6.43;;;2.38;;
21862;SDS011;11096;51.338;12.524;2023-12-20T08:41:49;5.75;;;2.20;;
21862;SDS011;11096;51.338;12.524;2023-12-20T08:44:15;3.95;;;2.38;;
21862;SDS011;11096;51.338;12.524;2023-12-20T08:46:40;6.85;;;2.63;;
21862;SDS011;11096;51.338;12.524;2023-12-20T08:49:05;7.50;;;2.85;;
21862;SDS011;11096;51.338;12.524;2023-12-20T08:51:30;10.95;;;2.50;;
21862;SDS011;11096;51.338;12.524;2023-12-20T08:53:56;6.22;;;2.63;;
21862;SDS011;11096;51.338;12.524;2023-12-20T08:56:21;6.28;;;2.70;;
21862;SDS011;11096;51.338;12.524;2023-12-20T08:58:46;5.82;;;2.47;;
21862;SDS011;11096;51.338;12.524;2023-12-20T09:01:12;3.25;;;1.92;;
21862;SDS011;11096;51.338;12.524;2023-12-20T09:03:37;4.45;;;2.38;;
21862;SDS011;11096;51.338;12.524;2023-12-20T09:06:03;6.85;;;2.40;;
21862;SDS011;11096;51.338;12.524;2023-12-20T09:08:28;7.13;;;2.47;;
21862;SDS011;11096;51.338;12.524;2023-12-20T09:10:53;9.05;;;2.60;;
21862;SDS011;11096;51.338;12.524;2023-12-20T09:13:18;5.47;;;1.98;;
21862;SDS011;11096;51.338;12.524;2023-12-20T09:15:44;4.95;;;2.03;;
21862;SDS011;11096;51.338;12.524;2023-12-20T09:18:09;7.43;;;2.40;;
21862;SDS011;11096;51.338;12.524;2023-12-20T09:20:34;5.13;;;2.47;;
21862;SDS011;11096;51.338;12.524;2023-12-20T09:23:00;4.90;;;2.30;;
21862;SDS011;11096;51.338;12.524;2023-12-20T09:25:25;6.80;;;2.13;;
21862;SDS011;11096;51.338;12.524;2023-12-20T09:27:51;6.22;;;2.40;;
21862;SDS011;11096;51.338;12.524;2023-12-20T09:30:17;7.30;;;2.30;;
21862;SDS011;11096;51.338;12.524;2023-12-20T09:32:42;6.22;;;2.25;;
21862;SDS011;11096;51.338;12.524;2023-12-20T09:35:07;6.50;;;2.25;;
21862;SDS011;11096;51.338;12.524;2023-12-20T09:37:33;5.53;;;1.88;;
21862;SDS011;11096;51.338;12.524;2023-12-20T09:39:59;6.80;;;2.08;;
21862;SDS011;11096;51.338;12.524;2023-12-20T09:45:09;5.07;;;2.08;;
21862;SDS011;11096;51.338;12.524;2023-12-20T09:47:39;6.45;;;2.00;;
21862;SDS011;11096;51.338;12.524;2023-12-20T09:50:05;5.90;;;2.13;;
21862;SDS011;11096;51.338;12.524;2023-12-20T09:52:31;7.65;;;2.33;;
21862;SDS011;11096;51.338;12.524;2023-12-20T09:54:57;7.70;;;2.42;;
21862;SDS011;11096;51.338;12.524;2023-12-20T09:57:22;8.43;;;2.35;;
21862;SDS011;11096;51.338;12.524;2023-12-20T09:59:48;6.05;;;2.28;;
21862;SDS011;11096;51.338;12.524;2023-12-20T10:02:13;4.88;;;2.05;;
21862;SDS011;11096;51.338;12.524;2023-12-20T10:04:43;4.97;;;2.42;;
21862;SDS011;11096;51.338;12.524;2023-12-20T10:07:12;8.43;;;2.65;;
21862;SDS011;11096;51.338;12.524;2023-12-20T10:09:37;7.55;;;2.05;;
21862;SDS011;11096;51.338;12.524;2023-12-20T10:12:03;4.50;;;2.00;;
21862;SDS011;11096;51.338;12.524;2023-12-20T10:14:30;8.45;;;2.67;;
21862;SDS011;11096;51.338;12.524;2023-12-20T10:17:01;6.55;;;2.78;;
21862;SDS011;11096;51.338;12.524;2023-12-20T10:19:26;5.13;;;2.33;;
21862;SDS011;11096;51.338;12.524;2023-12-20T10:21:52;8.50;;;2.60;;
21862;SDS011;11096;51.338;12.524;2023-12-20T10:24:17;10.18;;;3.13;;
21862;SDS011;11096;51.338;12.524;2023-12-20T10:26:42;9.23;;;2.88;;
21862;SDS011;11096;51.338;12.524;2023-12-20T10:29:08;7.28;;;2.67;;
21862;SDS011;11096;51.338;12.524;2023-12-20T10:31:33;9.10;;;2.70;;
21862;SDS011;11096;51.338;12.524;2023-12-20T10:34:00;9.63;;;3.55;;
21862;SDS011;11096;51.338;12.524;2023-12-20T10:36:34;9.35;;;3.38;;
21862;SDS011;11096;51.338;12.524;2023-12-20T10:39:01;4.18;;;2.45;;
21862;SDS011;11096;51.338;12.524;2023-12-20T10:41:28;9.70;;;3.95;;
21862;SDS011;11096;51.338;12.524;2023-12-20T10:44:03;14.13;;;3.63;;
21862;SDS011;11096;51.338;12.524;2023-12-20T10:46:30;10.10;;;2.92;;
21862;SDS011;11096;51.338;12.524;2023-12-20T10:48:55;3.97;;;2.22;;
21862;SDS011;11096;51.338;12.524;2023-12-20T10:51:21;7.97;;;2.72;;
21862;SDS011;11096;51.338;12.524;2023-12-20T10:53:48;5.00;;;2.05;;
21862;SDS011;11096;51.338;12.524;2023-12-20T10:56:16;7.32;;;2.17;;
21862;SDS011;11096;51.338;12.524;2023-12-20T10:58:43;7.82;;;2.78;;
21862;SDS011;11096;51.338;12.524;2023-12-20T11:01:08;7.18;;;2.55;;
21862;SDS011;11096;51.338;12.524;2023-12-20T11:03:34;8.23;;;2.85;;
21862;SDS011;11096;51.338;12.524;2023-12-20T11:06:12;7.10;;;2.42;;
21862;SDS011;11096;51.338;12.524;2023-12-20T11:16:24;7.72;;;1.95;;
21862;SDS011;11096;51.338;12.524;2023-12-20T11:18:50;6.47;;;1.85;;
21862;SDS011;11096;51.338;12.524;2023-12-20T11:21:15;4.03;;;1.20;;
21862;SDS011;11096;51.338;12.524;2023-12-20T11:23:41;8.07;;;1.50;;
21862;SDS011;11096;51.338;12.524;2023-12-20T11:26:07;5.28;;;1.52;;
21862;SDS011;11096;51.338;12.524;2023-12-20T11:28:32;4.47;;;1.50;;
21862;SDS011;11096;51.338;12.524;2023-12-20T11:30:58;8.75;;;1.67;;
21862;SDS011;11096;51.338;12.524;2023-12-20T11:33:30;4.18;;;1.63;;
21862;SDS011;11096;51.338;12.524;2023-12-20T11:35:55;4.78;;;1.70;;
21862;SDS011;11096;51.338;12.524;2023-12-20T11:38:21;7.65;;;1.30;;
21862;SDS011;11096;51.338;12.524;2023-12-20T11:40:50;3.78;;;1.15;;
21862;SDS011;11096;51.338;12.524;2023-12-20T11:46:02;4.88;;;1.23;;
21862;SDS011;11096;51.338;12.524;2023-12-20T11:48:27;5.95;;;1.55;;
21862;SDS011;11096;51.338;12.524;2023-12-20T11:50:53;8.77;;;1.63;;
21862;SDS011;11096;51.338;12.524;2023-12-20T11:53:18;6.97;;;1.40;;
21862;SDS011;11096;51.338;12.524;2023-12-20T11:55:47;6.20;;;2.00;;
21862;SDS011;11096;51.338;12.524;2023-12-20T11:58:12;8.32;;;1.77;;
21862;SDS011;11096;51.338;12.524;2023-12-20T12:00:38;6.65;;;2.15;;
21862;SDS011;11096;51.338;12.524;2023-12-20T12:03:03;7.25;;;1.83;;
21862;SDS011;11096;51.338;12.524;2023-12-20T12:05:30;6.78;;;2.10;;
21862;SDS011;11096;51.338;12.524;2023-12-20T12:07:55;6.05;;;1.70;;
21862;SDS011;11096;51.338;12.524;2023-12-20T12:10:21;5.25;;;1.50;;
21862;SDS011;11096;51.338;12.524;2023-12-20T12:12:46;6.93;;;1.58;;
21862;SDS011;11096;51.338;12.524;2023-12-20T12:15:11;5.90;;;1.52;;
21862;SDS011;11096;51.338;12.524;2023-12-20T12:17:37;8.73;;;1.80;;
21862;SDS011;11096;51.338;12.524;2023-12-20T12:20:04;5.05;;;1.58;;
21862;SDS011;11096;51.338;12.524;2023-12-20T12:22:29;7.18;;;1.80;;
21862;SDS011;11096;51.338;12.524;2023-12-20T12:24:55;8.32;;;1.45;;
21862;SDS011;11096;51.338;12.524;2023-12-20T12:27:23;5.82;;;1.30;;
21862;SDS011;11096;51.338;12.524;2023-12-20T12:30:02;6.07;;;1.65;;
21862;SDS011;11096;51.338;12.524;2023-12-20T12:32:28;4.30;;;1.75;;
21862;SDS011;11096;51.338;12.524;2023-12-20T12:34:53;7.82;;;1.58;;
21862;SDS011;11096;51.338;12.524;2023-12-20T12:37:19;4.30;;;1.67;;
21862;SDS011;11096;51.338;12.524;2023-12-20T12:39:46;4.55;;;1.65;;
21862;SDS011;11096;51.338;12.524;2023-12-20T12:42:11;3.67;;;1.58;;
21862;SDS011;11096;51.338;12.524;2023-12-20T12:44:36;7.32;;;1.77;;
21862;SDS011;11096;51.338;12.524;2023-12-20T12:47:01;5.75;;;1.65;;
21862;SDS011;11096;51.338;12.524;2023-12-20T12:49:28;5.38;;;1.65;;
21862;SDS011;11096;51.338;12.524;2023-12-20T12:51:53;4.28;;;1.80;;
21862;SDS011;11096;51.338;12.524;2023-12-20T12:54:21;8.23;;;1.60;;
21862;SDS011;11096;51.338;12.524;2023-12-20T12:56:46;4.32;;;1.23;;
21862;SDS011;11096;51.338;12.524;2023-12-20T12:59:12;4.25;;;1.40;;
21862;SDS011;11096;51.338;12.524;2023-12-20T13:01:38;8.32;;;1.50;;
21862;SDS011;11096;51.338;12.524;2023-12-20T13:04:03;4.32;;;1.60;;
21862;SDS011;11096;51.338;12.524;2023-12-20T13:06:31;4.50;;;1.75;;
21862;SDS011;11096;51.338;12.524;2023-12-20T13:08:57;5.85;;;1.60;;
21862;SDS011;11096;51.338;12.524;2023-12-20T13:11:22;4.13;;;1.65;;
21862;SDS011;11096;51.338;12.524;2023-12-20T13:13:47;7.35;;;1.80;;
21862;SDS011;11096;51.338;12.524;2023-12-20T13:16:12;6.43;;;1.63;;
21862;SDS011;11096;51.338;12.524;2023-12-20T13:18:38;5.10;;;1.40;;
21862;SDS011;11096;51.338;12.524;2023-12-20T13:21:07;4.63;;;1.73;;
21862;SDS011;11096;51.338;12.524;2023-12-20T13:23:32;7.38;;;1.80;;
21862;SDS011;11096;51.338;12.524;2023-12-20T13:25:57;4.10;;;1.90;;
21862;SDS011;11096;51.338;12.524;2023-12-20T13:28:23;4.47;;;1.70;;
21862;SDS011;11096;51.338;12.524;2023-12-20T13:30:48;8.18;;;2.05;;
21862;SDS011;11096;51.338;12.524;2023-12-20T13:33:13;6.25;;;1.83;;
21862;SDS011;11096;51.338;12.524;2023-12-20T13:35:38;5.00;;;1.55;;
21862;SDS011;11096;51.338;12.524;2023-12-20T13:38:04;3.40;;;1.55;;
21862;SDS011;11096;51.338;12.524;2023-12-20T13:40:29;5.82;;;1.77;;
21862;SDS011;11096;51.338;12.524;2023-12-20T13:42:55;6.10;;;1.67;;
21862;SDS011;11096;51.338;12.524;2023-12-20T13:45:20;7.47;;;1.90;;
21862;SDS011;11096;51.338;12.524;2023-12-20T13:47:45;4.40;;;1.50;;
21862;SDS011;11096;51.338;12.524;2023-12-20T13:50:11;4.38;;;1.63;;
21862;SDS011;11096;51.338;12.524;2023-12-20T13:52:36;4.70;;;1.80;;
21862;SDS011;11096;51.338;12.524;2023-12-20T13:55:01;7.80;;;1.50;;
21862;SDS011;11096;51.338;12.524;2023-12-20T13:57:27;2.67;;;1.30;;
21862;SDS011;11096;51.338;12.524;2023-12-20T13:59:53;4.18;;;1.75;;
21862;SDS011;11096;51.338;12.524;2023-12-20T14:02:19;6.05;;;1.58;;
21862;SDS011;11096;51.338;12.524;2023-12-20T14:04:44;4.55;;;1.60;;
21862;SDS011;11096;51.338;12.524;2023-12-20T14:07:10;7.68;;;1.60;;
21862;SDS011;11096;51.338;12.524;2023-12-20T14:09:35;5.63;;;1.95;;
21862;SDS011;11096;51.338;12.524;2023-12-20T14:12:00;7.60;;;1.75;;
21862;SDS011;11096;51.338;12.524;2023-12-20T14:14:26;7.50;;;1.73;;
21862;SDS011;11096;51.338;12.524;2023-12-20T14:16:51;5.28;;;1.50;;
21862;SDS011;11096;51.338;12.524;2023-12-20T14:19:16;5.85;;;1.92;;
21862;SDS011;11096;51.338;12.524;2023-12-20T14:21:42;6.80;;;1.60;;
21862;SDS011;11096;51.338;12.524;2023-12-20T14:24:07;7.57;;;1.95;;
21862;SDS011;11096;51.338;12.524;2023-12-20T14:26:32;3.67;;;1.70;;
21862;SDS011;11096;51.338;12.524;2023-12-20T14:28:57;3.88;;;1.65;;
21862;SDS011;11096;51.338;12.524;2023-12-20T14:31:23;4.22;;;1.35;;
21862;SDS011;11096;51.338;12.524;2023-12-20T14:33:49;4.10;;;1.58;;